Machens, Missouri
Current Conditions -  °F | °C
As of 11:54 AM on Monday 22 Dec 2014 (Local Time) from KSET Reporting Station
Light Rain Light Rain  
Wind Chill:   Ceiling: 600
Heat Index:   Visibility: 4mi
Dew Point:   Wind: 5mph
Humidity: 96%   Direction: 140°SE
Pressure: 29.65"   Gusts: NA
Location:  38.9266°N, 90.3904°W
Report Text: KSET 221754Z AUTO 14004KT 4SM -RA BR OVC006 07/06 A2965 RMK AO2 RAE03B36 SLP041 P0001 60034 T00670061 10067 20033 58028
Loading
Personal Weather Stations






























Interactive Weather Map New forecast layout! Learn more

10-Day Weather Forecast

Advertisements
Track Severe Weather on mobile